createdAt,value
2023-05-07T00:00:38.973Z,6.10
2023-05-07T00:03:41.564Z,5.78
2023-05-07T00:06:43.926Z,5.18
2023-05-07T00:09:46.221Z,6.65
2023-05-07T00:12:48.630Z,5.75
2023-05-07T00:15:50.952Z,5.85
2023-05-07T00:18:53.932Z,5.45
2023-05-07T00:21:57.066Z,5.68
2023-05-07T00:24:59.861Z,5.00
2023-05-07T00:28:05.012Z,5.32
2023-05-07T00:31:07.236Z,4.72
2023-05-07T00:34:09.654Z,5.75
2023-05-07T00:37:13.126Z,5.20
2023-05-07T00:40:15.663Z,5.18
2023-05-07T00:43:18.282Z,5.30
2023-05-07T00:46:22.595Z,6.30
2023-05-07T00:49:33.796Z,5.00
2023-05-07T00:52:36.097Z,5.57
2023-05-07T00:55:38.983Z,5.35
2023-05-07T00:58:42.024Z,5.70
2023-05-07T01:01:44.391Z,5.07
2023-05-07T01:04:46.856Z,5.60
2023-05-07T01:07:52.137Z,5.38
2023-05-07T01:10:56.050Z,6.65
2023-05-07T01:14:00.484Z,5.75
2023-05-07T01:17:02.984Z,5.20
2023-05-07T01:20:06.935Z,6.00
2023-05-07T01:23:12.118Z,5.78
2023-05-07T01:26:15.048Z,6.38
2023-05-07T01:29:20.882Z,6.55
2023-05-07T01:32:41.818Z,5.80
2023-05-07T01:35:48.604Z,6.85
2023-05-07T01:38:51.353Z,6.55
2023-05-07T01:41:56.706Z,6.18
2023-05-07T01:45:00.243Z,6.68
2023-05-07T01:48:04.238Z,6.20
2023-05-07T01:51:07.385Z,6.28
2023-05-07T01:54:09.766Z,6.15
2023-05-07T01:57:12.278Z,6.32
2023-05-07T02:00:14.965Z,7.25
2023-05-07T02:03:20.908Z,6.25
2023-05-07T02:06:37.422Z,6.35
2023-05-07T02:09:41.708Z,6.50
2023-05-07T02:12:44.460Z,5.32
2023-05-07T02:15:50.482Z,6.65
2023-05-07T02:18:53.463Z,5.72
2023-05-07T02:21:56.606Z,6.05
2023-05-07T02:24:58.897Z,5.80
2023-05-07T02:28:01.133Z,6.13
2023-05-07T02:31:29.997Z,5.68
2023-05-07T02:34:32.307Z,5.30
2023-05-07T02:37:34.602Z,5.25
2023-05-07T02:40:39.928Z,5.28
2023-05-07T02:43:42.149Z,5.30
2023-05-07T02:46:45.500Z,4.70
2023-05-07T02:49:48.981Z,5.25
2023-05-07T02:52:51.334Z,6.32
2023-05-07T02:56:03.009Z,4.85
2023-05-07T02:59:05.232Z,5.13
2023-05-07T03:02:11.960Z,5.22
2023-05-07T03:05:15.565Z,5.22
2023-05-07T03:08:18.836Z,5.38
2023-05-07T03:11:21.283Z,5.65
2023-05-07T03:14:23.538Z,6.05
2023-05-07T03:17:25.989Z,5.50
2023-05-07T03:20:28.308Z,6.00
2023-05-07T03:23:30.948Z,5.25
2023-05-07T03:26:33.223Z,5.50
2023-05-07T03:29:36.284Z,5.40
2023-05-07T03:32:38.821Z,4.63
2023-05-07T03:35:44.450Z,5.05
2023-05-07T03:38:50.539Z,5.18
2023-05-07T03:41:56.151Z,5.60
2023-05-07T03:44:58.508Z,6.47
2023-05-07T03:48:00.995Z,5.97
2023-05-07T03:51:03.452Z,5.35
2023-05-07T03:54:09.076Z,5.53
2023-05-07T03:57:12.544Z,5.90
2023-05-07T04:00:15.765Z,5.88
2023-05-07T04:03:24.043Z,5.55
2023-05-07T04:06:26.784Z,6.43
2023-05-07T04:09:29.289Z,5.90
2023-05-07T04:12:33.123Z,5.65
2023-05-07T04:15:37.062Z,5.50
2023-05-07T04:18:42.877Z,6.30
2023-05-07T04:21:45.953Z,6.03
2023-05-07T04:24:48.298Z,5.93
2023-05-07T04:27:51.884Z,5.95
2023-05-07T04:30:54.698Z,5.93
2023-05-07T04:33:57.908Z,5.90
2023-05-07T04:37:00.944Z,6.18
2023-05-07T04:40:04.272Z,6.88
2023-05-07T04:43:08.660Z,7.18
2023-05-07T04:46:16.652Z,6.30
2023-05-07T04:49:19.539Z,6.70
2023-05-07T04:52:21.943Z,6.95
2023-05-07T04:55:24.490Z,6.78
2023-05-07T04:58:27.032Z,7.30
2023-05-07T05:01:29.524Z,6.47
2023-05-07T05:04:32.093Z,7.72
2023-05-07T05:07:34.792Z,8.00
2023-05-07T05:10:37.618Z,6.93
2023-05-07T05:13:41.480Z,8.10
2023-05-07T05:16:52.418Z,8.55
2023-05-07T05:19:55.307Z,6.75
2023-05-07T05:22:57.689Z,8.00
2023-05-07T05:26:00.308Z,9.38
2023-05-07T05:29:05.828Z,7.22
2023-05-07T05:32:08.536Z,6.70
2023-05-07T05:35:11.031Z,7.25
2023-05-07T05:38:15.055Z,7.90
2023-05-07T05:41:17.590Z,7.50
2023-05-07T05:44:20.500Z,7.95
2023-05-07T05:47:24.002Z,8.65
2023-05-07T05:50:29.259Z,7.20
2023-05-07T05:53:31.642Z,9.40
2023-05-07T05:56:34.675Z,8.07
2023-05-07T05:59:37.864Z,7.88
2023-05-07T06:02:40.320Z,8.45
2023-05-07T06:05:43.446Z,8.27
2023-05-07T06:08:46.150Z,7.80
2023-05-07T06:11:52.577Z,8.40
2023-05-07T06:14:55.144Z,7.90
2023-05-07T06:17:58.641Z,7.18
2023-05-07T06:21:01.135Z,8.18
2023-05-07T06:24:07.185Z,8.23
2023-05-07T06:27:10.004Z,8.27
2023-05-07T06:30:13.520Z,8.05
2023-05-07T06:33:16.098Z,7.97
2023-05-07T06:36:18.803Z,7.95
2023-05-07T06:39:22.302Z,7.97
2023-05-07T06:42:24.567Z,7.88
2023-05-07T06:45:32.571Z,8.15
2023-05-07T06:48:35.826Z,8.20
2023-05-07T06:51:41.312Z,7.97
2023-05-07T06:54:43.948Z,7.82
2023-05-07T06:57:47.513Z,8.52
2023-05-07T07:00:51.281Z,7.97
2023-05-07T07:03:53.648Z,7.57
2023-05-07T07:06:58.148Z,7.78
2023-05-07T07:10:00.529Z,7.15
2023-05-07T07:13:04.877Z,6.78
2023-05-07T07:16:07.692Z,7.15
2023-05-07T07:19:10.164Z,7.95
2023-05-07T07:22:13.040Z,7.60
2023-05-07T07:25:15.491Z,7.32
2023-05-07T07:28:18.898Z,7.15
2023-05-07T07:31:21.489Z,7.68
2023-05-07T07:34:25.948Z,7.85
2023-05-07T07:37:28.726Z,7.40
2023-05-07T07:40:31.320Z,7.45
2023-05-07T07:43:33.865Z,7.80
2023-05-07T07:46:36.479Z,8.02
2023-05-07T07:49:39.271Z,7.68
2023-05-07T07:52:44.047Z,8.05
2023-05-07T07:55:48.203Z,8.05
2023-05-07T07:58:53.592Z,8.90
2023-05-07T08:01:56.903Z,8.07
2023-05-07T08:05:01.416Z,8.52
2023-05-07T08:08:03.810Z,8.60
2023-05-07T08:11:09.231Z,8.35
2023-05-07T08:14:12.922Z,8.15
2023-05-07T08:17:17.184Z,8.38
2023-05-07T08:20:20.762Z,7.72
2023-05-07T08:23:23.607Z,7.45
2023-05-07T08:26:26.534Z,8.82
2023-05-07T08:29:29.367Z,8.70
2023-05-07T08:32:31.951Z,9.05
2023-05-07T08:35:34.287Z,8.90
2023-05-07T08:38:37.080Z,8.40
2023-05-07T08:41:39.742Z,8.38
2023-05-07T08:44:45.213Z,9.00
2023-05-07T08:47:59.741Z,8.38
2023-05-07T08:51:07.095Z,8.45
2023-05-07T08:54:12.055Z,9.32
2023-05-07T08:57:14.461Z,8.13
2023-05-07T09:00:17.477Z,8.65
2023-05-07T09:03:23.233Z,9.00
2023-05-07T09:06:28.237Z,8.60
2023-05-07T09:09:31.194Z,8.52
2023-05-07T09:12:33.781Z,8.60
2023-05-07T09:15:36.525Z,9.00
2023-05-07T09:18:43.049Z,8.50
2023-05-07T09:21:46.997Z,8.90
2023-05-07T09:24:51.787Z,8.40
2023-05-07T09:27:57.878Z,8.82
2023-05-07T09:31:00.371Z,8.57
2023-05-07T09:34:02.864Z,8.57
2023-05-07T09:37:08.438Z,8.55
2023-05-07T09:40:25.770Z,8.88
2023-05-07T09:43:37.080Z,10.23
2023-05-07T09:46:45.084Z,9.90
2023-05-07T09:49:59.312Z,9.30
2023-05-07T09:53:03.208Z,9.95
2023-05-07T09:56:06.847Z,10.25
2023-05-07T09:59:11.666Z,10.10
2023-05-07T10:02:16.873Z,10.35
2023-05-07T10:05:27.371Z,9.95
2023-05-07T10:08:32.626Z,10.07
2023-05-07T10:11:37.881Z,10.10
2023-05-07T10:14:41.653Z,10.40
2023-05-07T10:17:46.178Z,10.27
2023-05-07T10:20:52.368Z,9.48
2023-05-07T10:23:58.418Z,11.35
2023-05-07T10:27:04.089Z,10.52
2023-05-07T10:30:12.556Z,10.30
2023-05-07T10:33:20.044Z,11.40
2023-05-07T10:36:24.885Z,10.40
2023-05-07T10:39:29.126Z,11.18
2023-05-07T10:42:31.426Z,10.00
2023-05-07T10:45:34.552Z,9.35
2023-05-07T10:49:09.665Z,9.68
2023-05-07T10:52:24.547Z,12.07
2023-05-07T10:55:33.633Z,10.52
2023-05-07T10:58:44.054Z,10.25
2023-05-07T11:01:59.605Z,9.95
2023-05-07T11:05:30.110Z,10.20
2023-05-07T11:08:53.865Z,10.80
2023-05-07T11:11:59.359Z,10.27
2023-05-07T11:15:17.177Z,9.80
2023-05-07T11:18:19.912Z,10.32
2023-05-07T11:21:34.559Z,10.27
2023-05-07T11:24:44.868Z,9.77
2023-05-07T11:27:49.530Z,10.38
2023-05-07T11:30:52.956Z,9.98
2023-05-07T11:33:56.939Z,9.80
2023-05-07T11:37:00.105Z,9.43
2023-05-07T11:40:24.204Z,11.00
2023-05-07T11:43:26.478Z,10.30
2023-05-07T11:46:29.937Z,9.43
2023-05-07T11:49:32.357Z,8.43
2023-05-07T11:52:35.528Z,9.32
2023-05-07T11:55:37.823Z,8.75
2023-05-07T11:58:40.915Z,9.05
2023-05-07T12:01:47.558Z,9.15
2023-05-07T12:04:50.096Z,8.82
2023-05-07T12:08:00.254Z,9.50
2023-05-07T12:17:11.032Z,8.20
2023-05-07T12:20:14.168Z,8.38
2023-05-07T12:23:16.852Z,9.32
2023-05-07T12:26:21.992Z,8.35
2023-05-07T12:29:25.968Z,8.98
2023-05-07T12:32:28.560Z,8.77
2023-05-07T12:35:32.579Z,8.40
2023-05-07T12:38:39.662Z,9.57
2023-05-07T12:41:59.911Z,10.25
2023-05-07T12:45:08.889Z,10.30
2023-05-07T12:48:12.048Z,9.07
2023-05-07T12:51:16.294Z,8.95
2023-05-07T12:54:36.596Z,9.10
2023-05-07T12:57:52.651Z,9.10
2023-05-07T13:01:00.442Z,9.27
2023-05-07T13:04:04.911Z,10.07
2023-05-07T13:07:07.324Z,8.40
2023-05-07T13:10:10.852Z,8.65
2023-05-07T13:13:13.124Z,8.98
2023-05-07T13:16:15.704Z,9.30
2023-05-07T13:19:18.751Z,8.85
2023-05-07T13:22:21.163Z,8.82
2023-05-07T13:25:23.448Z,8.35
2023-05-07T13:28:27.000Z,9.10
2023-05-07T13:31:29.299Z,9.30
2023-05-07T13:34:31.876Z,9.43
2023-05-07T13:37:34.172Z,9.02
2023-05-07T13:40:36.502Z,9.27
2023-05-07T13:43:38.769Z,9.05
2023-05-07T13:46:41.228Z,8.30
2023-05-07T13:49:43.622Z,9.02
2023-05-07T13:52:51.951Z,8.43
2023-05-07T13:55:54.157Z,9.00
2023-05-07T13:59:00.596Z,10.45
2023-05-07T14:02:03.526Z,9.15
2023-05-07T14:05:06.506Z,8.77
2023-05-07T14:08:09.177Z,8.68
2023-05-07T14:11:11.572Z,8.80
2023-05-07T14:14:13.925Z,9.23
2023-05-07T14:17:16.196Z,8.32
2023-05-07T14:20:18.706Z,8.32
2023-05-07T14:23:23.327Z,8.45
2023-05-07T14:26:25.587Z,8.82
2023-05-07T14:29:27.800Z,6.97
2023-05-07T14:32:30.197Z,8.23
2023-05-07T14:35:32.546Z,8.38
2023-05-07T14:38:34.901Z,8.35
2023-05-07T14:41:37.157Z,8.68
2023-05-07T14:44:41.700Z,7.28
2023-05-07T14:47:44.016Z,6.97
2023-05-07T14:50:49.586Z,7.00
2023-05-07T14:53:52.326Z,6.55
2023-05-07T14:57:15.001Z,7.57
2023-05-07T15:00:17.489Z,8.20
2023-05-07T15:03:24.516Z,6.63
2023-05-07T15:06:28.220Z,6.78
2023-05-07T15:09:30.977Z,6.90
2023-05-07T15:12:33.339Z,5.82
2023-05-07T15:15:35.855Z,6.85
2023-05-07T15:18:38.688Z,6.10
2023-05-07T15:21:41.095Z,6.70
2023-05-07T15:24:43.378Z,7.30
2023-05-07T15:27:45.810Z,6.57
2023-05-07T15:30:48.095Z,6.63
2023-05-07T15:33:53.064Z,6.63
2023-05-07T15:36:57.925Z,5.70
2023-05-07T15:40:00.292Z,6.22
2023-05-07T15:43:03.771Z,5.93
2023-05-07T15:46:06.682Z,5.75
2023-05-07T15:49:09.103Z,6.00
2023-05-07T15:52:12.076Z,6.10
2023-05-07T15:55:15.202Z,6.43
2023-05-07T15:58:20.533Z,5.25
2023-05-07T16:01:25.370Z,6.45
2023-05-07T16:04:28.508Z,5.90
2023-05-07T16:07:30.855Z,6.25
2023-05-07T16:10:33.172Z,6.78
2023-05-07T16:13:36.687Z,5.63
2023-05-07T16:16:41.131Z,5.63
2023-05-07T16:19:43.523Z,5.63
2023-05-07T16:22:46.631Z,5.30
2023-05-07T16:25:50.292Z,5.57
2023-05-07T16:28:52.556Z,5.85
2023-05-07T16:31:55.044Z,4.70
2023-05-07T16:34:57.307Z,5.43
2023-05-07T16:37:59.607Z,5.75
2023-05-07T16:41:01.972Z,5.47
2023-05-07T16:44:04.572Z,4.85
2023-05-07T16:47:06.878Z,4.10
2023-05-07T16:50:09.570Z,4.50
2023-05-07T16:53:12.345Z,4.78
2023-05-07T16:56:14.565Z,5.18
2023-05-07T16:59:17.557Z,4.63
2023-05-07T17:02:20.683Z,4.40
2023-05-07T17:05:22.975Z,4.13
2023-05-07T17:08:25.304Z,3.47
2023-05-07T17:11:31.291Z,3.67
2023-05-07T17:14:33.629Z,4.30
2023-05-07T17:17:38.903Z,4.00
2023-05-07T17:20:41.329Z,3.80
2023-05-07T17:23:43.553Z,3.80
2023-05-07T17:26:47.648Z,4.07
2023-05-07T17:29:50.025Z,4.60
2023-05-07T17:32:52.362Z,3.95
2023-05-07T17:35:55.300Z,4.15
2023-05-07T17:38:57.632Z,4.18
2023-05-07T17:41:59.961Z,4.50
2023-05-07T17:45:02.326Z,4.50
2023-05-07T17:48:05.955Z,4.35
2023-05-07T17:51:08.650Z,4.22
2023-05-07T17:54:11.325Z,3.40
2023-05-07T17:57:13.846Z,3.58
2023-05-07T18:00:16.587Z,3.80
2023-05-07T18:03:18.910Z,3.72
2023-05-07T18:06:23.334Z,3.90
2023-05-07T18:09:25.639Z,3.97
2023-05-07T18:12:28.309Z,3.95
2023-05-07T18:15:30.648Z,4.03
2023-05-07T18:18:35.466Z,3.78
2023-05-07T18:21:37.992Z,3.72
2023-05-07T18:24:40.238Z,4.88
2023-05-07T18:27:42.528Z,3.90
2023-05-07T18:30:45.027Z,4.80
2023-05-07T18:33:47.307Z,4.47
2023-05-07T18:36:49.820Z,4.32
2023-05-07T18:39:52.148Z,4.22
2023-05-07T18:42:54.519Z,5.00
2023-05-07T18:45:56.855Z,4.80
2023-05-07T18:48:59.077Z,4.75
2023-05-07T18:52:01.584Z,4.57
2023-05-07T18:55:04.422Z,4.32
2023-05-07T18:58:06.654Z,4.38
2023-05-07T19:01:09.221Z,4.60
2023-05-07T19:04:11.683Z,3.92
2023-05-07T19:07:14.648Z,4.72
2023-05-07T19:10:17.610Z,4.30
2023-05-07T19:13:20.039Z,4.57
2023-05-07T19:16:22.577Z,4.20
2023-05-07T19:19:25.105Z,5.20
2023-05-07T19:22:27.401Z,4.18
2023-05-07T19:25:29.604Z,4.30
2023-05-07T19:28:31.788Z,4.05
2023-05-07T19:31:34.379Z,4.60
2023-05-07T19:34:36.580Z,4.97
2023-05-07T19:37:39.184Z,4.22
2023-05-07T19:40:41.675Z,4.53
2023-05-07T19:43:43.992Z,4.50
2023-05-07T19:46:48.010Z,3.83
2023-05-07T19:49:50.243Z,4.57
2023-05-07T19:52:52.788Z,3.78
2023-05-07T19:56:07.034Z,3.50
2023-05-07T19:59:09.320Z,5.57
2023-05-07T20:02:12.436Z,3.90
2023-05-07T20:05:14.982Z,4.07
2023-05-07T20:08:17.415Z,3.95
2023-05-07T20:11:20.630Z,4.00
2023-05-07T20:14:23.172Z,4.60
2023-05-07T20:17:25.674Z,4.10
2023-05-07T20:20:28.104Z,3.92
2023-05-07T20:23:30.408Z,4.43
2023-05-07T20:26:32.727Z,4.38
2023-05-07T20:29:35.041Z,4.32
2023-05-07T20:32:37.395Z,4.07
2023-05-07T20:35:39.959Z,3.78
2023-05-07T20:38:42.183Z,3.78
2023-05-07T20:41:44.728Z,4.82
2023-05-07T20:44:46.987Z,4.00
2023-05-07T20:47:49.324Z,3.83
2023-05-07T20:50:51.720Z,3.67
2023-05-07T20:53:53.945Z,3.70
2023-05-07T20:56:57.177Z,3.80
2023-05-07T20:59:59.506Z,3.70
2023-05-07T21:03:02.916Z,3.60
2023-05-07T21:06:05.257Z,3.97
2023-05-07T21:09:08.098Z,3.83
2023-05-07T21:12:10.331Z,4.07
2023-05-07T21:15:12.555Z,3.83
2023-05-07T21:18:15.090Z,3.47
2023-05-07T21:21:17.461Z,4.13
2023-05-07T21:24:19.753Z,3.85
2023-05-07T21:27:22.034Z,3.83
2023-05-07T21:30:24.494Z,3.35
2023-05-07T21:33:26.728Z,4.28
2023-05-07T21:36:29.402Z,3.65
2023-05-07T21:39:31.721Z,3.90
2023-05-07T21:42:34.121Z,5.18
2023-05-07T21:45:36.417Z,4.28
2023-05-07T21:48:39.112Z,4.00
2023-05-07T21:51:41.604Z,4.63
2023-05-07T21:54:44.296Z,3.90
2023-05-07T21:58:01.259Z,4.18
2023-05-07T22:01:07.647Z,4.07
2023-05-07T22:04:10.084Z,3.55
2023-05-07T22:07:12.383Z,3.15
2023-05-07T22:10:14.852Z,3.25
2023-05-07T22:13:17.578Z,3.35
2023-05-07T22:16:19.979Z,3.28
2023-05-07T22:19:22.293Z,2.88
2023-05-07T22:22:24.570Z,3.15
2023-05-07T22:25:27.016Z,2.83
2023-05-07T22:28:29.274Z,2.92
2023-05-07T22:31:31.663Z,3.10
2023-05-07T22:34:33.961Z,3.20
2023-05-07T22:37:36.291Z,2.63
2023-05-07T22:40:38.464Z,2.40
2023-05-07T22:43:40.920Z,2.60
2023-05-07T22:46:43.235Z,2.22
2023-05-07T22:49:45.960Z,2.60
2023-05-07T22:52:49.355Z,2.80
2023-05-07T22:55:51.828Z,2.20
2023-05-07T22:58:54.041Z,2.22
2023-05-07T23:01:56.392Z,2.20
2023-05-07T23:05:01.977Z,2.20
2023-05-07T23:08:04.779Z,2.30
2023-05-07T23:11:07.978Z,2.40
2023-05-07T23:14:10.232Z,1.70
2023-05-07T23:17:12.499Z,2.20
2023-05-07T23:20:15.344Z,2.30
2023-05-07T23:23:18.012Z,2.47
2023-05-07T23:26:20.447Z,2.63
2023-05-07T23:29:22.652Z,2.17
2023-05-07T23:32:25.014Z,2.13
2023-05-07T23:35:27.282Z,1.83
2023-05-07T23:38:29.550Z,1.80
2023-05-07T23:41:31.787Z,1.50
2023-05-07T23:44:34.111Z,1.95
2023-05-07T23:47:36.392Z,2.00
2023-05-07T23:50:38.566Z,2.10
2023-05-07T23:53:40.927Z,1.98
2023-05-07T23:56:43.361Z,1.90
2023-05-07T23:59:45.681Z,1.50
